createdAt,value
2023-05-05T00:00:32.193Z,21
2023-05-05T00:01:39.189Z,21
2023-05-05T00:02:46.217Z,21
2023-05-05T00:03:53.388Z,23
2023-05-05T00:05:00.288Z,21
2023-05-05T00:06:07.320Z,19
2023-05-05T00:07:14.344Z,19
2023-05-05T00:08:21.355Z,21
2023-05-05T00:09:28.344Z,19
2023-05-05T00:10:35.270Z,19
2023-05-05T00:11:43.182Z,19
2023-05-05T00:12:50.083Z,21
2023-05-05T00:13:57.020Z,20
2023-05-05T00:15:04.772Z,18
2023-05-05T00:16:11.890Z,20
2023-05-05T00:17:18.888Z,21
2023-05-05T00:18:25.830Z,20
2023-05-05T00:19:32.813Z,21
2023-05-05T00:20:39.803Z,20
2023-05-05T00:21:48.555Z,20
2023-05-05T00:22:55.497Z,24
2023-05-05T00:24:02.497Z,22
2023-05-05T00:25:09.551Z,19
2023-05-05T00:26:16.487Z,20
2023-05-05T00:27:23.524Z,20
2023-05-05T00:28:30.533Z,21
2023-05-05T00:29:37.572Z,20
2023-05-05T00:30:44.576Z,19
2023-05-05T00:31:51.589Z,25
2023-05-05T00:32:58.619Z,20
2023-05-05T00:34:05.549Z,19
2023-05-05T00:35:19.285Z,21
2023-05-05T00:36:26.346Z,23
2023-05-05T00:37:33.321Z,23
2023-05-05T00:38:40.308Z,30
2023-05-05T00:39:47.250Z,27
2023-05-05T00:40:54.182Z,26
2023-05-05T00:42:01.113Z,25
2023-05-05T00:43:08.105Z,24
2023-05-05T00:44:15.200Z,24
2023-05-05T00:45:22.319Z,24
2023-05-05T00:46:29.346Z,24
2023-05-05T00:47:36.315Z,24
2023-05-05T00:48:43.334Z,22
2023-05-05T00:49:50.592Z,24
2023-05-05T00:50:57.632Z,23
2023-05-05T00:52:04.557Z,24
2023-05-05T00:53:11.521Z,21
2023-05-05T00:54:18.558Z,22
2023-05-05T00:55:25.518Z,20
2023-05-05T00:56:32.576Z,19
2023-05-05T00:57:39.489Z,21
2023-05-05T00:58:46.476Z,20
2023-05-05T00:59:53.441Z,19
2023-05-05T01:01:00.540Z,18
2023-05-05T01:02:08.532Z,18
2023-05-05T01:03:16.404Z,19
2023-05-05T01:04:23.289Z,20
2023-05-05T01:05:30.260Z,20
2023-05-05T01:06:42.476Z,18
2023-05-05T01:07:54.638Z,20
2023-05-05T01:09:09.816Z,19
2023-05-05T01:10:27.256Z,18
2023-05-05T01:11:39.285Z,19
2023-05-05T01:12:54.578Z,17
2023-05-05T01:14:11.980Z,19
2023-05-05T01:15:18.914Z,19
2023-05-05T01:16:36.319Z,17
2023-05-05T01:17:43.477Z,18
2023-05-05T01:18:55.608Z,16
2023-05-05T01:20:13.947Z,18
2023-05-05T01:21:23.887Z,16
2023-05-05T01:22:33.618Z,18
2023-05-05T01:23:45.997Z,17
2023-05-05T01:25:01.134Z,17
2023-05-05T01:26:16.438Z,16
2023-05-05T01:27:33.868Z,16
2023-05-05T01:28:51.118Z,17
2023-05-05T01:30:08.702Z,17
2023-05-05T01:31:18.154Z,16
2023-05-05T01:32:35.458Z,16
2023-05-05T01:33:42.424Z,15
2023-05-05T01:34:49.338Z,15
2023-05-05T01:36:01.535Z,16
2023-05-05T01:37:11.338Z,15
2023-05-05T01:38:18.237Z,15
2023-05-05T01:39:25.187Z,14
2023-05-05T01:40:32.080Z,13
2023-05-05T01:41:41.670Z,14
2023-05-05T01:42:48.584Z,56
2023-05-05T01:43:55.488Z,82
2023-05-05T01:45:03.323Z,94
2023-05-05T01:46:10.601Z,96
2023-05-05T01:47:17.476Z,88
2023-05-05T01:48:24.451Z,85
2023-05-05T01:49:31.331Z,53
2023-05-05T01:50:38.314Z,49
2023-05-05T01:51:45.298Z,35
2023-05-05T01:52:52.246Z,33
2023-05-05T01:53:59.170Z,25
2023-05-05T01:55:06.068Z,25
2023-05-05T01:56:13.016Z,21
2023-05-05T01:57:19.966Z,19
2023-05-05T01:58:26.997Z,18
2023-05-05T01:59:34.080Z,16
2023-05-05T02:00:40.990Z,18
2023-05-05T02:01:48.049Z,15
2023-05-05T02:02:55.080Z,15
2023-05-05T02:04:02.097Z,16
2023-05-05T02:05:09.256Z,16
2023-05-05T02:06:16.166Z,16
2023-05-05T02:07:23.284Z,15
2023-05-05T02:08:30.225Z,15
2023-05-05T02:09:37.323Z,15
2023-05-05T02:10:45.274Z,15
2023-05-05T02:11:52.328Z,15
2023-05-05T02:13:02.618Z,17
2023-05-05T02:14:09.600Z,14
2023-05-05T02:15:16.568Z,15
2023-05-05T02:16:23.717Z,16
2023-05-05T02:17:30.656Z,16
2023-05-05T02:18:37.693Z,15
2023-05-05T02:19:44.642Z,16
2023-05-05T02:20:51.770Z,17
2023-05-05T02:21:58.805Z,17
2023-05-05T02:23:05.764Z,17
2023-05-05T02:24:12.685Z,15
2023-05-05T02:25:19.644Z,19
2023-05-05T02:26:26.611Z,17
2023-05-05T02:27:35.453Z,17
2023-05-05T02:28:42.379Z,17
2023-05-05T02:29:51.927Z,15
2023-05-05T02:31:01.697Z,15
2023-05-05T02:32:08.720Z,16
2023-05-05T02:33:24.714Z,16
2023-05-05T02:34:31.716Z,16
2023-05-05T02:35:38.592Z,17
2023-05-05T02:36:45.541Z,17
2023-05-05T02:37:52.503Z,16
2023-05-05T02:38:59.536Z,15
2023-05-05T02:40:15.662Z,15
2023-05-05T02:41:22.638Z,14
2023-05-05T02:42:29.702Z,14
2023-05-05T02:43:39.390Z,14
2023-05-05T02:44:46.473Z,14
2023-05-05T02:45:53.518Z,16
2023-05-05T02:47:00.574Z,15
2023-05-05T02:48:10.536Z,14
2023-05-05T02:49:17.673Z,16
2023-05-05T02:50:24.739Z,17
2023-05-05T02:51:31.734Z,14
2023-05-05T02:52:38.801Z,15
2023-05-05T02:53:45.830Z,14
2023-05-05T02:54:52.835Z,15
2023-05-05T02:55:59.844Z,15
2023-05-05T02:57:14.792Z,18
2023-05-05T02:58:21.698Z,33
2023-05-05T02:59:31.389Z,32
2023-05-05T03:00:46.672Z,40
2023-05-05T03:01:53.719Z,44
2023-05-05T03:03:03.318Z,47
2023-05-05T03:04:13.261Z,50
2023-05-05T03:05:25.400Z,34
2023-05-05T03:06:32.318Z,39
2023-05-05T03:07:44.547Z,39
2023-05-05T03:08:56.757Z,44
2023-05-05T03:10:09.122Z,57
2023-05-05T03:11:15.928Z,56
2023-05-05T03:12:25.439Z,38
2023-05-05T03:13:32.424Z,29
2023-05-05T03:14:39.522Z,27
2023-05-05T03:15:46.432Z,19
2023-05-05T03:16:53.386Z,18
2023-05-05T03:18:00.384Z,19
2023-05-05T03:19:07.315Z,17
2023-05-05T03:20:14.253Z,22
2023-05-05T03:21:21.192Z,21
2023-05-05T03:22:28.152Z,21
2023-05-05T03:23:35.133Z,18
2023-05-05T03:24:42.068Z,19
2023-05-05T03:25:48.939Z,18
2023-05-05T03:26:55.868Z,17
2023-05-05T03:28:02.814Z,16
2023-05-05T03:29:09.744Z,17
2023-05-05T03:30:16.686Z,18
2023-05-05T03:31:24.680Z,17
2023-05-05T03:32:31.680Z,18
2023-05-05T03:33:38.705Z,19
2023-05-05T03:34:45.733Z,16
2023-05-05T03:35:52.767Z,16
2023-05-05T03:36:59.803Z,16
2023-05-05T03:38:06.798Z,17
2023-05-05T03:39:13.706Z,17
2023-05-05T03:40:22.107Z,18
2023-05-05T03:41:27.698Z,18
2023-05-05T03:42:34.676Z,18
2023-05-05T03:43:41.675Z,17
2023-05-05T03:44:48.745Z,19
2023-05-05T03:45:55.794Z,20
2023-05-05T03:47:03.658Z,18
2023-05-05T03:48:10.593Z,19
2023-05-05T03:49:17.657Z,17
2023-05-05T03:50:24.723Z,18
2023-05-05T03:51:31.725Z,17
2023-05-05T03:52:38.747Z,27
2023-05-05T03:53:45.591Z,18
2023-05-05T03:54:52.472Z,20
2023-05-05T03:55:59.417Z,18
2023-05-05T03:57:06.453Z,26
2023-05-05T03:58:13.414Z,19
2023-05-05T03:59:20.409Z,17
2023-05-05T04:00:27.377Z,14
2023-05-05T04:01:34.283Z,16
2023-05-05T04:02:41.256Z,18
2023-05-05T04:03:48.303Z,19
2023-05-05T04:04:55.180Z,20
2023-05-05T04:06:02.271Z,18
2023-05-05T04:07:09.388Z,17
2023-05-05T04:08:16.509Z,16
2023-05-05T04:09:23.464Z,18
2023-05-05T04:10:30.613Z,26
2023-05-05T04:11:37.599Z,23
2023-05-05T04:12:45.341Z,23
2023-05-05T04:13:52.464Z,22
2023-05-05T04:14:59.456Z,22
2023-05-05T04:16:06.590Z,22
2023-05-05T04:17:13.542Z,20
2023-05-05T04:18:20.552Z,20
2023-05-05T04:19:27.465Z,21
2023-05-05T04:20:37.191Z,21
2023-05-05T04:21:44.219Z,21
2023-05-05T04:22:52.570Z,18
2023-05-05T04:23:58.082Z,18
2023-05-05T04:25:04.973Z,18
2023-05-05T04:26:12.112Z,19
2023-05-05T04:27:19.131Z,18
2023-05-05T04:28:26.161Z,18
2023-05-05T04:29:33.112Z,18
2023-05-05T04:30:40.160Z,17
2023-05-05T04:31:47.154Z,16
2023-05-05T04:32:54.076Z,18
2023-05-05T04:34:01.020Z,18
2023-05-05T04:35:08.042Z,17
2023-05-05T04:36:15.112Z,17
2023-05-05T04:37:22.156Z,19
2023-05-05T04:38:29.109Z,17
2023-05-05T04:39:36.086Z,19
2023-05-05T04:40:43.034Z,18
2023-05-05T04:41:50.035Z,17
2023-05-05T04:42:57.031Z,22
2023-05-05T04:44:04.208Z,18
2023-05-05T04:45:12.414Z,19
2023-05-05T04:46:19.496Z,18
2023-05-05T04:47:26.613Z,17
2023-05-05T04:48:33.603Z,17
2023-05-05T04:49:40.700Z,19
2023-05-05T04:50:47.706Z,18
2023-05-05T04:51:54.683Z,16
2023-05-05T04:53:01.741Z,21
2023-05-05T04:54:08.799Z,18
2023-05-05T04:55:16.416Z,20
2023-05-05T04:56:23.916Z,23
2023-05-05T04:57:34.499Z,19
2023-05-05T04:58:41.664Z,19
2023-05-05T04:59:48.894Z,19
2023-05-05T05:00:55.956Z,21
2023-05-05T05:02:06.685Z,19
2023-05-05T05:03:13.803Z,19
2023-05-05T05:04:20.766Z,19
2023-05-05T05:05:28.033Z,21
2023-05-05T05:06:35.088Z,19
2023-05-05T05:07:42.072Z,18
2023-05-05T05:08:49.149Z,19
2023-05-05T05:09:56.166Z,16
2023-05-05T05:11:03.272Z,18
2023-05-05T05:12:10.206Z,17
2023-05-05T05:13:17.166Z,16
2023-05-05T05:14:24.019Z,19
2023-05-05T05:15:30.922Z,18
2023-05-05T05:16:37.920Z,18
2023-05-05T05:17:44.861Z,17
2023-05-05T05:18:51.847Z,18
2023-05-05T05:19:58.764Z,19
2023-05-05T05:21:05.718Z,17
2023-05-05T05:22:12.699Z,18
2023-05-05T05:23:19.666Z,18
2023-05-05T05:24:26.593Z,15
2023-05-05T05:25:33.538Z,18
2023-05-05T05:26:40.516Z,17
2023-05-05T05:27:50.266Z,18
2023-05-05T05:28:54.422Z,18
2023-05-05T05:30:01.579Z,19
2023-05-05T05:31:08.839Z,17
2023-05-05T05:32:16.033Z,18
2023-05-05T05:33:22.904Z,17
2023-05-05T05:34:29.842Z,18
2023-05-05T05:35:36.767Z,17
2023-05-05T05:36:43.820Z,16
2023-05-05T05:37:50.701Z,16
2023-05-05T05:38:57.576Z,18
2023-05-05T05:40:04.484Z,16
2023-05-05T05:41:11.827Z,19
2023-05-05T05:42:19.024Z,16
2023-05-05T05:43:25.974Z,17
2023-05-05T05:44:32.846Z,19
2023-05-05T05:45:39.864Z,19
2023-05-05T05:46:46.917Z,18
2023-05-05T05:47:53.841Z,19
2023-05-05T05:49:00.798Z,19
2023-05-05T05:50:08.214Z,22
2023-05-05T05:51:14.887Z,20
2023-05-05T05:52:21.843Z,20
2023-05-05T05:53:28.867Z,16
2023-05-05T05:54:35.912Z,21
2023-05-05T05:55:42.956Z,22
2023-05-05T05:56:49.982Z,18
2023-05-05T05:57:56.948Z,18
2023-05-05T05:59:03.792Z,19
2023-05-05T06:00:13.647Z,19
2023-05-05T06:01:20.869Z,22
2023-05-05T06:02:27.947Z,19
2023-05-05T06:03:35.054Z,19
2023-05-05T06:04:41.973Z,20
2023-05-05T06:05:48.898Z,18
2023-05-05T06:06:55.799Z,17
2023-05-05T06:08:02.729Z,19
2023-05-05T06:09:09.687Z,18
2023-05-05T06:10:27.056Z,19
2023-05-05T06:11:23.567Z,18
2023-05-05T06:12:30.541Z,19
2023-05-05T06:13:37.479Z,20
2023-05-05T06:14:44.369Z,18
2023-05-05T06:15:51.381Z,18
2023-05-05T06:16:58.284Z,17
2023-05-05T06:18:05.291Z,18
2023-05-05T06:19:12.316Z,16
2023-05-05T06:20:19.282Z,17
2023-05-05T06:21:26.257Z,18
2023-05-05T06:22:33.331Z,16
2023-05-05T06:23:40.388Z,17
2023-05-05T06:24:47.358Z,16
2023-05-05T06:25:54.367Z,15
2023-05-05T06:27:01.273Z,18
2023-05-05T06:28:08.413Z,17
2023-05-05T06:29:15.404Z,20
2023-05-05T06:30:22.342Z,18
2023-05-05T06:31:29.378Z,21
2023-05-05T06:32:36.329Z,17
2023-05-05T06:33:43.248Z,18
2023-05-05T06:34:50.155Z,19
2023-05-05T06:35:57.008Z,18
2023-05-05T06:37:03.967Z,17
2023-05-05T06:38:10.870Z,17
2023-05-05T06:39:17.782Z,18
2023-05-05T06:40:24.857Z,16
2023-05-05T06:41:31.854Z,18
2023-05-05T06:42:38.806Z,18
2023-05-05T06:43:45.722Z,17
2023-05-05T06:44:52.901Z,15
2023-05-05T06:45:59.939Z,16
2023-05-05T06:47:06.971Z,18
2023-05-05T06:48:13.892Z,15
2023-05-05T06:49:20.816Z,15
2023-05-05T06:50:27.733Z,17
2023-05-05T06:51:34.629Z,15
2023-05-05T06:52:41.581Z,17
2023-05-05T06:53:49.641Z,16
2023-05-05T06:54:56.518Z,15
2023-05-05T06:56:03.421Z,14
2023-05-05T06:57:11.594Z,15
2023-05-05T06:58:22.669Z,15
2023-05-05T06:59:29.540Z,14
2023-05-05T07:00:36.634Z,18
2023-05-05T07:01:43.318Z,15
2023-05-05T07:02:50.331Z,14
2023-05-05T07:03:57.361Z,17
2023-05-05T07:05:04.417Z,14
2023-05-05T07:06:11.418Z,14
2023-05-05T07:07:18.329Z,16
2023-05-05T07:08:25.288Z,13
2023-05-05T07:09:32.242Z,13
2023-05-05T07:10:39.086Z,17
2023-05-05T07:11:46.007Z,13
2023-05-05T07:12:53.006Z,13
2023-05-05T07:13:59.947Z,13
2023-05-05T07:15:15.764Z,15
2023-05-05T07:16:14.172Z,14
2023-05-05T07:17:21.032Z,14
2023-05-05T07:18:27.918Z,16
2023-05-05T07:19:34.908Z,13
2023-05-05T07:20:41.797Z,14
2023-05-05T07:21:48.634Z,11
2023-05-05T07:22:55.920Z,12
2023-05-05T07:24:02.645Z,11
2023-05-05T07:25:09.746Z,11
2023-05-05T07:26:16.630Z,11
2023-05-05T07:27:23.489Z,12
2023-05-05T07:28:30.402Z,12
2023-05-05T07:29:37.406Z,11
2023-05-05T07:30:44.497Z,12
2023-05-05T07:31:51.548Z,11
2023-05-05T07:32:58.646Z,11
2023-05-05T07:34:05.579Z,9
2023-05-05T07:35:12.474Z,10
2023-05-05T07:36:19.463Z,10
2023-05-05T07:37:26.363Z,10
2023-05-05T07:38:33.220Z,9
2023-05-05T07:39:40.095Z,11
2023-05-05T07:40:46.956Z,11
2023-05-05T07:41:53.873Z,12
2023-05-05T07:43:00.701Z,9
2023-05-05T07:44:07.720Z,12
2023-05-05T07:45:14.662Z,11
2023-05-05T07:46:21.814Z,10
2023-05-05T07:47:28.856Z,9
2023-05-05T07:48:35.724Z,9
2023-05-05T07:49:42.594Z,9
2023-05-05T07:50:49.474Z,9
2023-05-05T07:51:56.365Z,11
2023-05-05T07:53:13.429Z,8
2023-05-05T07:54:10.286Z,8
2023-05-05T07:55:17.280Z,10
2023-05-05T07:56:24.323Z,9
2023-05-05T07:57:31.343Z,8
2023-05-05T07:58:38.275Z,9
2023-05-05T07:59:45.208Z,7
2023-05-05T08:00:52.215Z,8
2023-05-05T08:01:59.115Z,7
2023-05-05T08:03:07.754Z,7
2023-05-05T08:04:13.098Z,8
2023-05-05T08:05:19.929Z,9
2023-05-05T08:06:26.778Z,9
2023-05-05T08:07:33.659Z,9
2023-05-05T08:08:40.712Z,11
2023-05-05T08:09:47.730Z,9
2023-05-05T08:10:54.822Z,9
2023-05-05T08:12:01.781Z,10
2023-05-05T08:13:08.869Z,12
2023-05-05T08:14:15.744Z,10
2023-05-05T08:15:22.786Z,9
2023-05-05T08:16:29.726Z,9
2023-05-05T08:17:36.594Z,8
2023-05-05T08:18:51.732Z,9
2023-05-05T08:19:58.421Z,10
2023-05-05T08:21:05.313Z,10
2023-05-05T08:22:12.345Z,8
2023-05-05T08:23:19.276Z,7
2023-05-05T08:24:26.193Z,9
2023-05-05T08:25:33.225Z,8
2023-05-05T08:26:40.195Z,9
2023-05-05T08:27:47.384Z,8
2023-05-05T08:28:59.462Z,9
2023-05-05T08:30:06.799Z,8
2023-05-05T08:31:13.918Z,9
2023-05-05T08:32:20.834Z,9
2023-05-05T08:33:27.878Z,9
2023-05-05T08:34:34.866Z,7
2023-05-05T08:35:41.923Z,8
2023-05-05T08:36:48.900Z,9
2023-05-05T08:37:57.324Z,9
2023-05-05T08:39:02.732Z,6
2023-05-05T08:40:09.657Z,7
2023-05-05T08:41:19.494Z,10
2023-05-05T08:42:35.964Z,7
2023-05-05T08:43:33.406Z,8
2023-05-05T08:44:40.462Z,8
2023-05-05T08:45:47.426Z,8
2023-05-05T08:46:57.418Z,7
2023-05-05T08:48:04.361Z,8
2023-05-05T08:49:11.237Z,7
2023-05-05T08:50:18.319Z,8
2023-05-05T08:51:25.220Z,9
2023-05-05T08:52:32.155Z,7
2023-05-05T08:53:41.849Z,8
2023-05-05T08:54:54.018Z,9
2023-05-05T08:56:00.932Z,9
2023-05-05T08:57:08.071Z,7
2023-05-05T08:58:15.126Z,8
2023-05-05T08:59:22.080Z,7
2023-05-05T09:00:29.106Z,8
2023-05-05T09:01:36.153Z,8
2023-05-05T09:02:43.331Z,7
2023-05-05T09:03:50.434Z,10
2023-05-05T09:04:57.309Z,8
2023-05-05T09:06:04.499Z,7
2023-05-05T09:07:11.256Z,6
2023-05-05T09:08:18.193Z,6
2023-05-05T09:09:25.141Z,7
2023-05-05T09:10:32.094Z,12
2023-05-05T09:11:39.157Z,10
2023-05-05T09:12:46.189Z,8
2023-05-05T09:15:30.806Z,8
2023-05-05T09:16:37.786Z,7
2023-05-05T09:17:44.695Z,6
2023-05-05T09:18:51.647Z,7
2023-05-05T09:20:03.780Z,7
2023-05-05T09:21:10.887Z,7
2023-05-05T09:22:22.993Z,8
2023-05-05T09:23:35.129Z,8
2023-05-05T09:24:42.255Z,8
2023-05-05T09:25:57.399Z,7
2023-05-05T09:27:06.914Z,8
2023-05-05T09:28:13.825Z,8
2023-05-05T09:29:20.709Z,10
2023-05-05T09:30:27.629Z,7
2023-05-05T09:31:34.662Z,9
2023-05-05T09:32:41.598Z,9
2023-05-05T09:33:48.443Z,7
2023-05-05T09:34:55.324Z,7
2023-05-05T09:36:02.224Z,7
2023-05-05T09:37:09.389Z,7
2023-05-05T09:38:16.265Z,7
2023-05-05T09:39:23.340Z,7
2023-05-05T09:40:30.256Z,6
2023-05-05T09:41:37.193Z,6
2023-05-05T09:42:44.140Z,7
2023-05-05T09:43:51.090Z,6
2023-05-05T09:44:59.729Z,5
2023-05-05T09:46:04.974Z,6
2023-05-05T09:47:22.324Z,6
2023-05-05T09:48:18.832Z,7
2023-05-05T09:49:28.790Z,7
2023-05-05T09:50:35.690Z,8
2023-05-05T09:51:45.432Z,6
2023-05-05T09:52:52.423Z,8
2023-05-05T09:54:02.341Z,6
2023-05-05T09:55:09.382Z,7
2023-05-05T09:56:21.473Z,7
2023-05-05T09:57:28.418Z,6
2023-05-05T09:58:35.390Z,8
2023-05-05T09:59:42.247Z,7
2023-05-05T10:00:54.345Z,7
2023-05-05T10:02:01.314Z,6
2023-05-05T10:03:13.404Z,7
2023-05-05T10:04:20.556Z,8
2023-05-05T10:05:27.490Z,7
2023-05-05T10:06:34.500Z,6
2023-05-05T10:07:46.720Z,7
2023-05-05T10:08:53.792Z,6
2023-05-05T10:10:03.510Z,6
2023-05-05T10:11:10.510Z,6
2023-05-05T10:12:17.469Z,7
2023-05-05T10:13:24.405Z,6
2023-05-05T10:14:31.322Z,6
2023-05-05T10:15:38.195Z,7
2023-05-05T10:16:45.273Z,8
2023-05-05T10:18:05.679Z,7
2023-05-05T10:18:59.156Z,7
2023-05-05T10:20:06.235Z,6
2023-05-05T10:21:13.089Z,6
2023-05-05T10:22:20.005Z,5
2023-05-05T10:23:26.902Z,6
2023-05-05T10:24:39.133Z,6
2023-05-05T10:25:45.815Z,6
2023-05-05T10:27:00.553Z,7
2023-05-05T10:28:07.563Z,6
2023-05-05T10:29:14.480Z,6
2023-05-05T10:30:29.623Z,6
2023-05-05T10:31:36.564Z,6
2023-05-05T10:32:57.258Z,7
2023-05-05T10:33:58.282Z,6
2023-05-05T10:35:10.920Z,6
2023-05-05T10:36:23.319Z,6
2023-05-05T10:37:30.508Z,7
2023-05-05T10:38:37.385Z,8
2023-05-05T10:39:44.448Z,6
2023-05-05T10:40:51.199Z,5
2023-05-05T10:41:58.166Z,6
2023-05-05T10:43:05.141Z,8
2023-05-05T10:44:12.090Z,6
2023-05-05T10:45:19.921Z,7
2023-05-05T10:46:26.940Z,6
2023-05-05T10:47:33.792Z,8
2023-05-05T10:48:40.659Z,6
2023-05-05T10:49:55.574Z,9
2023-05-05T10:51:10.374Z,7
2023-05-05T10:52:27.606Z,6
2023-05-05T10:53:39.755Z,7
2023-05-05T10:54:52.092Z,6
2023-05-05T10:55:58.826Z,6
2023-05-05T10:57:10.878Z,6
2023-05-05T10:58:17.809Z,6
2023-05-05T10:59:35.139Z,6
2023-05-05T11:00:42.008Z,8
2023-05-05T11:01:51.534Z,6
2023-05-05T11:02:58.456Z,7
2023-05-05T11:04:10.526Z,6
2023-05-05T11:05:22.783Z,6
2023-05-05T11:06:29.685Z,7
2023-05-05T11:07:36.867Z,6
2023-05-05T11:08:43.757Z,6
2023-05-05T11:09:50.640Z,5
2023-05-05T11:11:00.749Z,6
2023-05-05T11:12:07.503Z,6
2023-05-05T11:13:14.425Z,6
2023-05-05T11:14:21.329Z,5
2023-05-05T11:15:28.236Z,7
2023-05-05T11:16:35.510Z,7
2023-05-05T11:17:47.502Z,9
2023-05-05T11:18:54.473Z,6
2023-05-05T11:20:01.672Z,7
2023-05-05T11:21:09.142Z,8
2023-05-05T11:22:19.134Z,6
2023-05-05T11:23:26.119Z,6
2023-05-05T11:24:33.006Z,6
2023-05-05T11:25:39.890Z,5
2023-05-05T11:26:46.874Z,7
2023-05-05T11:27:56.499Z,6
2023-05-05T11:29:11.367Z,6
2023-05-05T11:30:18.246Z,8
2023-05-05T11:31:25.243Z,6
2023-05-05T11:32:32.207Z,7
2023-05-05T11:33:39.069Z,6
2023-05-05T11:34:46.005Z,8
2023-05-05T11:35:52.906Z,7
2023-05-05T11:36:59.932Z,6
2023-05-05T11:38:06.844Z,5
2023-05-05T11:39:13.805Z,7
2023-05-05T11:40:26.070Z,5
2023-05-05T11:41:33.029Z,7
2023-05-05T11:42:43.159Z,7
2023-05-05T11:43:49.951Z,5
2023-05-05T11:45:07.362Z,6
2023-05-05T11:46:24.693Z,6
2023-05-05T11:47:31.798Z,7
2023-05-05T11:48:38.631Z,7
2023-05-05T11:49:50.923Z,6
2023-05-05T11:50:57.868Z,7
2023-05-05T11:52:04.776Z,6
2023-05-05T11:53:14.528Z,7
2023-05-05T11:54:21.393Z,6
2023-05-05T11:55:28.396Z,6
2023-05-05T11:56:35.393Z,6
2023-05-05T11:57:42.223Z,8
2023-05-05T11:58:49.251Z,6
2023-05-05T12:00:06.601Z,5
2023-05-05T12:01:13.762Z,8
2023-05-05T12:02:20.704Z,7
2023-05-05T12:03:27.765Z,6
2023-05-05T12:04:37.163Z,6
2023-05-05T12:05:44.115Z,6
2023-05-05T12:06:51.035Z,6
2023-05-05T12:07:58.023Z,7
2023-05-05T12:09:05.044Z,7
2023-05-05T12:10:19.945Z,6
2023-05-05T12:11:26.981Z,6
2023-05-05T12:12:33.808Z,7
2023-05-05T12:13:40.752Z,9
2023-05-05T12:14:47.702Z,8
2023-05-05T12:15:57.723Z,5
2023-05-05T12:17:12.452Z,6
2023-05-05T12:18:19.319Z,7
2023-05-05T12:19:26.299Z,7
2023-05-05T12:20:33.387Z,8
2023-05-05T12:21:40.363Z,6
2023-05-05T12:22:47.236Z,6
2023-05-05T12:23:54.247Z,6
2023-05-05T12:25:01.303Z,6
2023-05-05T12:26:08.471Z,7
2023-05-05T12:27:25.772Z,8
2023-05-05T12:28:32.716Z,6
2023-05-05T12:29:47.856Z,8
2023-05-05T12:30:55.157Z,6
2023-05-05T12:32:02.141Z,6
2023-05-05T12:33:09.032Z,6
2023-05-05T12:34:16.080Z,5
2023-05-05T12:35:23.078Z,5
2023-05-05T12:36:30.525Z,5
2023-05-05T12:37:36.895Z,6
2023-05-05T12:38:43.856Z,5
2023-05-05T12:39:50.816Z,5
2023-05-05T12:41:00.546Z,5
2023-05-05T12:42:07.877Z,5
2023-05-05T12:43:14.810Z,4
2023-05-05T12:44:29.796Z,6
2023-05-05T12:46:09.575Z,6
2023-05-05T12:47:16.355Z,7
2023-05-05T12:48:33.674Z,6
2023-05-05T12:49:40.717Z,5
2023-05-05T12:50:53.754Z,6
2023-05-05T12:52:11.151Z,5
2023-05-05T12:53:18.103Z,6
2023-05-05T12:54:25.099Z,4
2023-05-05T12:55:35.080Z,5
2023-05-05T12:56:42.102Z,5
2023-05-05T12:57:51.556Z,5
2023-05-05T12:59:04.296Z,4
2023-05-05T13:00:15.999Z,6
2023-05-05T13:01:23.249Z,5
2023-05-05T13:02:30.272Z,7
2023-05-05T13:03:37.222Z,8
2023-05-05T13:04:44.263Z,6
2023-05-05T13:05:51.218Z,6
2023-05-05T13:06:58.230Z,5
2023-05-05T13:08:10.394Z,5
2023-05-05T13:09:17.447Z,5
2023-05-05T13:10:27.455Z,5
2023-05-05T13:11:34.489Z,4
2023-05-05T13:12:41.493Z,4
2023-05-05T13:13:48.401Z,5
2023-05-05T13:14:55.344Z,5
2023-05-05T13:16:02.324Z,5
2023-05-05T13:17:09.535Z,5
2023-05-05T13:18:16.243Z,5
2023-05-05T13:19:23.247Z,5
2023-05-05T13:20:30.272Z,10
2023-05-05T13:21:37.265Z,5
2023-05-05T13:22:44.267Z,5
2023-05-05T13:23:51.250Z,5
2023-05-05T13:24:58.244Z,5
2023-05-05T13:26:05.257Z,7
2023-05-05T13:27:12.281Z,4
2023-05-05T13:28:19.321Z,5
2023-05-05T13:29:29.703Z,5
2023-05-05T13:30:33.454Z,7
2023-05-05T13:31:40.576Z,5
2023-05-05T13:32:47.741Z,5
2023-05-05T13:33:54.389Z,5
2023-05-05T13:35:01.456Z,5
2023-05-05T13:36:08.837Z,5
2023-05-05T13:37:15.801Z,5
2023-05-05T13:38:22.848Z,6
2023-05-05T13:39:29.766Z,7
2023-05-05T13:40:36.808Z,5
2023-05-05T13:41:43.706Z,4
2023-05-05T13:42:50.789Z,5
2023-05-05T13:43:57.815Z,5
2023-05-05T13:45:04.761Z,5
2023-05-05T13:46:19.532Z,6
2023-05-05T13:47:20.388Z,5
2023-05-05T13:48:27.442Z,5
2023-05-05T13:49:34.239Z,5
2023-05-05T13:50:41.201Z,4
2023-05-05T13:51:48.217Z,4
2023-05-05T13:52:55.241Z,6
2023-05-05T13:54:02.324Z,6
2023-05-05T13:55:09.405Z,7
2023-05-05T13:56:16.136Z,5
2023-05-05T13:57:23.992Z,6
2023-05-05T13:58:30.833Z,4
2023-05-05T13:59:37.814Z,14
2023-05-05T14:00:44.801Z,5
2023-05-05T14:01:51.716Z,5
2023-05-05T14:02:58.579Z,6
2023-05-05T14:04:06.194Z,3
2023-05-05T14:05:12.524Z,4
2023-05-05T14:06:19.503Z,5
2023-05-05T14:07:26.558Z,5
2023-05-05T14:08:33.461Z,6
2023-05-05T14:09:41.351Z,5
2023-05-05T14:10:49.094Z,4
2023-05-05T14:11:55.108Z,4
2023-05-05T14:13:02.939Z,4
2023-05-05T14:14:12.925Z,4
2023-05-05T14:15:20.007Z,6
2023-05-05T14:16:30.765Z,6
2023-05-05T14:17:37.796Z,7
2023-05-05T14:18:44.659Z,7
2023-05-05T14:19:51.732Z,4
2023-05-05T14:20:58.422Z,4
2023-05-05T14:22:05.318Z,4
2023-05-05T14:23:12.246Z,6
2023-05-05T14:24:19.150Z,4
2023-05-05T14:25:26.151Z,4
2023-05-05T14:26:33.266Z,5
2023-05-05T14:27:40.150Z,6
2023-05-05T14:28:49.046Z,5
2023-05-05T14:29:54.464Z,5
2023-05-05T14:31:01.395Z,4
2023-05-05T14:32:08.415Z,5
2023-05-05T14:33:15.472Z,4
2023-05-05T14:34:22.384Z,5
2023-05-05T14:35:29.269Z,6
2023-05-05T14:36:36.183Z,7
2023-05-05T14:37:43.092Z,5
2023-05-05T14:38:49.954Z,5
2023-05-05T14:39:56.891Z,6
2023-05-05T14:41:03.887Z,4
2023-05-05T14:42:10.787Z,4
2023-05-05T14:43:17.805Z,6
2023-05-05T14:44:24.715Z,4
2023-05-05T14:45:31.878Z,5
2023-05-05T14:46:38.762Z,4
2023-05-05T14:47:45.665Z,4
2023-05-05T14:48:52.625Z,4
2023-05-05T14:49:59.615Z,4
2023-05-05T14:51:07.617Z,5
2023-05-05T14:52:14.447Z,4
2023-05-05T14:53:21.333Z,4
2023-05-05T14:54:28.929Z,4
2023-05-05T14:55:35.271Z,4
2023-05-05T14:56:42.216Z,7
2023-05-05T14:57:49.044Z,5
2023-05-05T14:58:55.916Z,4
2023-05-05T15:00:02.936Z,5
2023-05-05T15:01:10.090Z,4
2023-05-05T15:02:16.951Z,5
2023-05-05T15:03:23.917Z,4
2023-05-05T15:04:30.753Z,5
2023-05-05T15:05:37.571Z,4
2023-05-05T15:06:44.524Z,4
2023-05-05T15:07:51.276Z,4
2023-05-05T15:08:58.183Z,4
2023-05-05T15:10:05.312Z,5
2023-05-05T15:11:12.275Z,5
2023-05-05T15:12:19.203Z,4
2023-05-05T15:13:26.178Z,4
2023-05-05T15:14:33.060Z,5
2023-05-05T15:15:39.991Z,4
2023-05-05T15:16:46.887Z,6
2023-05-05T15:17:53.896Z,6
2023-05-05T15:19:00.797Z,5
2023-05-05T15:20:07.724Z,5
2023-05-05T15:21:14.885Z,9
2023-05-05T15:22:21.924Z,9
2023-05-05T15:23:28.779Z,8
2023-05-05T15:24:35.873Z,6
2023-05-05T15:25:42.877Z,8
2023-05-05T15:26:49.803Z,9
2023-05-05T15:27:56.814Z,8
2023-05-05T15:29:03.813Z,6
2023-05-05T15:30:10.700Z,5
2023-05-05T15:31:17.627Z,6
2023-05-05T15:32:24.731Z,4
2023-05-05T15:33:31.615Z,6
2023-05-05T15:34:38.509Z,7
2023-05-05T15:35:45.404Z,4
2023-05-05T15:36:52.248Z,8
2023-05-05T15:37:59.243Z,4
2023-05-05T15:39:06.059Z,4
2023-05-05T15:40:13.033Z,5
2023-05-05T15:41:19.900Z,4
2023-05-05T15:42:26.845Z,4
2023-05-05T15:43:33.734Z,5
2023-05-05T15:44:40.625Z,4
2023-05-05T15:45:47.523Z,5
2023-05-05T15:46:54.437Z,3
2023-05-05T15:48:01.457Z,7
2023-05-05T15:49:08.498Z,5
2023-05-05T15:50:15.441Z,5
2023-05-05T15:51:22.362Z,6
2023-05-05T15:52:29.279Z,5
2023-05-05T15:53:36.347Z,6
2023-05-05T15:54:43.121Z,6
2023-05-05T15:55:50.033Z,4
2023-05-05T15:56:56.923Z,6
2023-05-05T15:58:03.876Z,6
2023-05-05T15:59:10.750Z,5
2023-05-05T16:00:17.660Z,7
2023-05-05T16:01:24.773Z,7
2023-05-05T16:02:31.807Z,5
2023-05-05T16:03:38.577Z,4
2023-05-05T16:04:45.443Z,5
2023-05-05T16:05:52.407Z,7
2023-05-05T16:06:59.247Z,7
2023-05-05T16:08:06.365Z,6
2023-05-05T16:09:13.246Z,6
2023-05-05T16:10:20.023Z,7
2023-05-05T16:11:26.961Z,5
2023-05-05T16:12:33.950Z,5
2023-05-05T16:13:40.763Z,5
2023-05-05T16:14:47.837Z,5
2023-05-05T16:15:54.718Z,7
2023-05-05T16:17:01.670Z,7
2023-05-05T16:18:08.676Z,4
2023-05-05T16:19:15.551Z,5
2023-05-05T16:20:22.517Z,5
2023-05-05T16:21:29.487Z,7
2023-05-05T16:22:36.588Z,6
2023-05-05T16:23:43.491Z,8
2023-05-05T16:24:50.570Z,6
2023-05-05T16:25:57.426Z,11